Flight Track Log - Related Links

Times and Time Zones

All times are in EDT time to prevent confusion due to time zone crossing. See the SWA1042 flight status page for this flight to view local times or setup timezone preferences in your user account.


Time Position Orientation Groundspeed Altitude Reporting Facility
EDT Latitude Longitude Course Direction KTS MPH feet Rate Location/Type
Sat 07:28:55 AM 41.8000 -87.7167 90° East 155 178 2,100  Level Chicago TRACON
Sat 07:29:56 AM 41.7833 -87.6333 105° East 221 254 4,200 1,979 Climbing Chicago TRACON
Sat 07:30:29 AM 41.7989 -87.6031 55° Northeast 235 270 5,200 3,161 Climbing Chicago Center
Sat 07:31:29 AM 41.8256 -87.5119 69° East 264 304 9,100 3,917 Climbing Chicago Center
Sat 07:32:30 AM 41.8503 -87.4214 70° East 278 320 13,100 3,295 Climbing Chicago Center
Sat 07:33:31 AM 41.8244 -87.3219 109° East 285 328 15,800 2,852 Climbing Chicago Center
Sat 07:34:00 AM 41.7500 -87.0321 90° East  Level FlightAware Approximate
Sat 07:34:32 AM 41.7908 -87.1800 108° East 331 381 18,900  Level Chicago Center
Sat 07:35:33 AM 41.7619 -87.0481 106° East 367 422 21,700 2,607 Climbing Chicago Center
Sat 07:36:34 AM 41.7642 -86.9053 89° East 388 447 24,200 2,262 Climbing Chicago Center
Sat 07:37:35 AM 41.7644 -86.7561 90° East 401 461 26,300 2,016 Climbing Chicago Center
Sat 07:38:36 AM 41.7661 -86.6072 89° East 412 474 28,300 1,918 Climbing Chicago Center
Sat 07:39:37 AM 41.7667 -86.4472 90° East 428 493 30,200 1,918 Climbing Chicago Center
Sat 07:40:38 AM 41.7683 -86.2872 89° East 431 496 32,200 2,115 Climbing Chicago Center
Sat 07:41:39 AM 41.7706 -86.1281 89° East 430 495 34,500 2,115 Climbing Chicago Center
Sat 07:42:40 AM 41.7722 -85.9747 89° East 419 482 36,500 1,721 Climbing Chicago Center
Sat 07:43:41 AM 41.7739 -85.8258 89° East 405 466 38,000 1,180 Climbing Chicago Center
Sat 07:44:42 AM 41.7753 -85.6739 89° East 404 465 38,900 885 Climbing Chicago Center
Sat 07:45:43 AM 41.7764 -85.5172 89° East 413 475 39,800 885 Climbing Chicago Center
Sat 07:46:44 AM 41.7778 -85.3567 89° East 420 483 40,700 590 Climbing Chicago Center
Sat 07:47:45 AM 41.7778 -85.1964 90° East 424 488 41,000 148 Climbing Chicago Center
Sat 07:48:46 AM 41.7786 -85.0381 90° East 426 490 41,000  Level Chicago Center
Sat 07:49:48 AM 41.7803 -84.8525 89° East 424 488 41,000  Level Cleveland Center
Sat 07:50:48 AM 41.7797 -84.6964 90° East 419 482 41,000  Level Cleveland Center
Sat 07:51:48 AM 41.7811 -84.5406 89° East 419 482 41,000  Level Cleveland Center
Sat 07:52:48 AM 41.7781 -84.3869 91° East 419 482 41,000  Level Cleveland Center
Sat 07:53:48 AM 41.7764 -84.2478 91° East 419 482 41,000  Level Cleveland Center
Sat 07:54:48 AM 41.7747 -84.0944 91° East 414 476 41,000  Level Cleveland Center
Sat 07:55:48 AM 41.7731 -83.9411 91° East 414 476 41,000  Level Cleveland Center
Sat 07:56:48 AM 41.7694 -83.7822 92° East 414 476 41,000  Level Cleveland Center
Sat 07:57:48 AM 41.7694 -83.6292 90° East 414 476 41,000  Level Cleveland Center
Sat 07:58:48 AM 41.7608 -83.4756 94° East 414 476 41,000  Level Cleveland Center
Sat 07:59:48 AM 41.7439 -83.3161 98° East 419 482 41,000  Level Cleveland Center
Sat 08:00:48 AM 41.7308 -83.1625 96° East 419 482 41,000  Level Cleveland Center
Sat 08:01:48 AM 41.7133 -83.0031 98° East 424 488 41,000  Level Cleveland Center
Sat 08:02:48 AM 41.7000 -82.8497 97° East 424 488 41,000  Level Cleveland Center
Sat 08:03:48 AM 41.6842 -82.6908 98° East 424 488 41,000  Level Cleveland Center
Sat 08:04:48 AM 41.6661 -82.5344 99° East 424 488 41,000  Level Cleveland Center
Sat 08:05:48 AM 41.6500 -82.3617 97° East 424 488 41,000  Level Cleveland Center
Sat 08:06:48 AM 41.6336 -82.2028 98° East 431 496 41,000  Level Cleveland Center
Sat 08:07:48 AM 41.6150 -82.0439 99° East 431 496 41,000  Level Cleveland Center
Sat 08:08:48 AM 41.6000 -81.9019 98° East 431 496 41,000  Level Cleveland Center
Sat 08:09:48 AM 41.5831 -81.7408 98° East 431 496 41,000  Level Cleveland Center
Sat 08:10:48 AM 41.5658 -81.5794 98° East 431 496 41,000  Level Cleveland Center
Sat 08:11:48 AM 41.5464 -81.4044 98° East 425 489 41,000  Level Cleveland Center
Sat 08:12:48 AM 41.5267 -81.2461 99° East 425 489 41,000  Level Cleveland Center
Sat 08:13:48 AM 41.5086 -81.0906 99° East 425 489 41,000  Level Cleveland Center
Sat 08:14:48 AM 41.4967 -80.9325 96° East 425 489 41,000  Level Cleveland Center
Sat 08:15:48 AM 41.4825 -80.7772 97° East 425 489 41,000  Level Cleveland Center
Sat 08:16:48 AM 41.4681 -80.6164 97° East 425 489 41,000  Level Cleveland Center
Sat 08:17:48 AM 41.4533 -80.4586 97° East 430 495 41,000  Level Cleveland Center
Sat 08:18:48 AM 41.4406 -80.3006 96° East 425 489 41,000  Level Cleveland Center
Sat 08:19:48 AM 41.4256 -80.1456 97° East 425 489 41,000  Level Cleveland Center
Sat 08:20:48 AM 41.4144 -80.0183 97° East 425 489 41,000  Level Cleveland Center
Sat 08:21:48 AM 41.3969 -79.8497 98° East 425 489 41,000  Level Cleveland Center
Sat 08:22:48 AM 41.3811 -79.6892 97° East 425 489 41,000  Level Cleveland Center
Sat 08:23:48 AM 41.3631 -79.5097 98° East 431 496 41,000  Level Cleveland Center
Sat 08:24:48 AM 41.3467 -79.3522 98° East 431 496 41,000  Level Cleveland Center
Sat 08:25:48 AM 41.3306 -79.2117 99° East 422 486 41,000  Level Cleveland Center
Sat 08:26:48 AM 41.3139 -79.0517 98° East 427 491 41,000  Level Cleveland Center
Sat 08:27:48 AM 41.2969 -78.8750 97° East 427 491 41,000 -746 Level Cleveland Center
Sat 08:29:53 AM 41.2606 -78.5439 98° East 455 524 38,700 -1,419 Descending New York Center
Sat 08:30:54 AM 41.2431 -78.3983 99° East 448 516 36,600 -2,331 Descending New York Center
Sat 08:31:54 AM 41.2261 -78.2392 98° East 443 510 34,000 -1,785 Descending New York Center
Sat 08:32:55 AM 41.2067 -78.0825 99° East 438 504 33,000 -496 Descending New York Center
Sat 08:33:55 AM 41.1886 -77.9317 99° East 426 490 33,000  Level New York Center
Sat 08:34:53 AM 41.1686 -77.7806 100° East 420 483 33,000  Level New York Center
Sat 08:35:53 AM 41.1506 -77.6269 99° East 413 475 33,000  Level New York Center
Sat 08:36:55 AM 41.1319 -77.4764 99° East 413 475 33,000 -300 Level New York Center
Sat 08:37:53 AM 41.1111 -77.3283 101° East 413 475 32,400 -966 Descending New York Center
Sat 08:38:53 AM 41.0900 -77.1803 101° East 413 475 31,100 -1,835 Descending New York Center
Sat 08:39:54 AM 41.0675 -77.0158 100° East 413 475 28,700 -2,132 Descending New York Center
Sat 08:40:54 AM 41.0497 -76.8792 100° East 408 470 26,800 -1,636 Descending New York Center
Sat 08:41:55 AM 41.0297 -76.7400 101° East 394 453 25,400 -1,230 Descending New York Center
Sat 08:42:56 AM 41.0033 -76.5972 104° East 389 448 24,300 -1,068 Descending New York Center
Sat 08:43:53 AM 40.9706 -76.4572 107° East 399 459 23,300 -1,026 Descending New York Center
Sat 08:44:53 AM 40.9394 -76.3225 107° East 393 452 22,300 -1,438 Descending New York Center
Sat 08:45:54 AM 40.9061 -76.1881 108° East 388 447 20,400 -1,835 Descending New York Center
Sat 08:46:54 AM 40.8819 -76.0764 106° East 369 425 18,600 -1,835 Descending New York Center
Sat 08:47:55 AM 40.8519 -75.9561 108° East 354 407 16,700 -1,721 Descending New York Center
Sat 08:48:56 AM 40.8181 -75.8247 109° East 348 400 15,100 -1,311 Descending New York Center
Sat 08:49:54 AM 40.7897 -75.7072 108° East 342 394 14,100 -958 Descending New York Center
Sat 08:50:55 AM 40.7631 -75.5931 107° East 337 388 13,200 -908 Descending New York Center
Sat 08:51:53 AM 40.7361 -75.4897 109° East 331 381 12,300 -966 Descending New York Center
Sat 08:52:53 AM 40.7114 -75.3758 106° East 325 374 11,300 -1,100 Descending New York Center
Sat 08:53:53 AM 40.6869 -75.2567 105° East 312 359 10,100 -645 Descending New York Center
Sat 08:54:54 AM 40.6714 -75.1708 103° East 285 328 10,000 -49 Descending New York Center
Sat 08:55:55 AM 40.6244 -75.0883 127° Southeast 274 315 10,000  Level New York Center
Sat 08:56:56 AM 40.5689 -75.0058 132° Southeast 279 321 10,000  Level New York Center
Sat 08:57:53 AM 40.5411 -74.9139 112° Southeast 271 312 10,000  Level New York Center
Sat 08:58:53 AM 40.5169 -74.8278 110° East 266 306 10,000  Level New York Center
Sat 08:59:54 AM 40.4867 -74.7358 113° Southeast 266 306 10,000  Level New York Center
Sat 09:00:55 AM 40.4583 -74.6442 112° Southeast 272 313 10,000 -397 Level New York Center
Sat 09:01:55 AM 40.4303 -74.5500 111° Southeast 272 313 9,200 -1,008 Descending New York Center
Sat 09:02:54 AM 40.4519 -74.4583 73° East 259 298 8,000 -554 Descending New York Center
Sat 09:04:05 AM 40.4833 -74.3500 69° East 258 297 8,000  Level New York TRACON
Sat 09:05:05 AM 40.5000 -74.2500 78° East 256 295 8,000 -700 Level New York TRACON
Sat 09:06:05 AM 40.5333 -74.1667 62° Northeast 258 297 6,600 -1,368 Descending New York TRACON
Sat 09:06:59 AM 40.5667 -74.1000 57° Northeast 248 285 5,400 -800 Descending New York TRACON
Sat 09:08:05 AM 40.6333 -74.0667 21° North 252 290 5,000 -650 Descending New York TRACON
Sat 09:08:59 AM 40.6833 -74.0000 45° Northeast 244 281 4,100 -526 Descending New York TRACON
Sat 09:09:59 AM 40.7500 -74.0000 360° North 257 296 4,000 -48 Descending New York TRACON
Sat 09:11:05 AM 40.8167 -73.9667 21° North 246 283 4,000 -286 Level New York TRACON
Sat 09:12:05 AM 40.8667 -73.9167 37° Northeast 247 284 3,400 -500 Descending New York TRACON
Sat 09:13:05 AM 40.9167 -73.8667 37° Northeast 216 249 3,000 -400 Descending New York TRACON
Sat 09:14:05 AM 40.9500 -73.8000 56° Northeast 214 246 2,600 -526 Descending New York TRACON
Sat 09:14:59 AM 40.9000 -73.7833 166° South 217 250 2,000 -316 Descending New York TRACON
Sat 09:15:59 AM 40.8500 -73.8167 207° Southwest 208 239 2,000 -350 Level New York TRACON
Sat 09:16:59 AM 40.8167 -73.8667 229° Southwest 171 197 1,300 -762 Descending New York TRACON
Sat 09:18:05 AM 40.7833 -73.8833 201° Southwest 156 180 400 -818 Descending New York TRACON
Sat 09:20:00 AM 40.7772 -73.8726 195° South  Level Estimated
Sat 09:27:00 AM 40.7772 -73.8726 195° South  Level Estimated

Login

Don't have an account? Register now (free) for customized features, flight alerts, and more!